« ラジコンヘリコプターの修理 SRB SG | トップページ | 続。。。。久しぶりの空~! »

2011年7月 2日 (土)

久しぶりの空~!

RJAA 020000Z 14005KT 9000 FEW007 SCT015 BKN025 25/22 Q1004 NOSIG
RJAA 020300Z 13008KT 090V170 9999 FEW015 BKN025 27/22 Q1004 NOSIG
RJAA 020600Z 06008KT 030V100 9999 -SHRA FEW010 SCT020 BKN035 25/23 Q1003 BECMG 05008KT
RJAA 020900Z 07008KT 9999 FEW015 BKN/// 25/22 Q1003 NOSIG

天気はイマイチでしたが、飛ばないairplaneとただの猫catになりそうなのでモグラで飛びましたsign03

Dscn7402s
大利根飛行場周辺は雲が多く降雨もあるので、注意しつつ東京湾方面へ。。。

Dscn7403s
cameraはブレてますが印旛沼を超えると明るくなり東京湾方面はごらんのとおり青空sunが!

Dscn7409s
マリンスタジアム~

Dscn7412s
東京TCAとコンタクトしてPCAの下を飛びます~!夏の海~って感じですね!

Dscn7411
JMGCラジコン部の技術部長

Dscn7416s
JFEスチールの東日本製鉄所

Dscn7418s
製鉄所ってなんかワクワクしますよね?

Dscn7420s
千葉都市モノレールの車庫

Dscn7423s
大利根飛行場方面は降雨。。。戻るの嫌だなぁsweat01

Dscn7426s
雨雲をよけつつ大利根飛行場に。。。。最後の着陸はイマイチだったsweat02

Dscn7431s
んで、皆さん飛び終えたら天気が良くなってきました!なんだかなぁ~annoy

Dscn7432s
そしてラジコン部の夜のミーティングbeer


|

« ラジコンヘリコプターの修理 SRB SG | トップページ | 続。。。。久しぶりの空~! »

空技(ひこうき、モーターグライダー)」カテゴリの記事

コメント

コメントを書く



(ウェブ上には掲載しません)


コメントは記事投稿者が公開するまで表示されません。



« ラジコンヘリコプターの修理 SRB SG | トップページ | 続。。。。久しぶりの空~! »